sensor_id;sensor_type;location;lat;lon;timestamp;P1;durP1;ratioP1;P2;durP2;ratioP2
73452;SDS011;61687;56.232;43.854;2023-02-22T00:00:41;35.88;;;13.40;;
73452;SDS011;61687;56.232;43.854;2023-02-22T00:05:45;40.60;;;14.48;;
73452;SDS011;61687;56.232;43.854;2023-02-22T00:08:12;39.03;;;14.25;;
73452;SDS011;61687;56.232;43.854;2023-02-22T00:10:39;42.30;;;13.07;;
73452;SDS011;61687;56.232;43.854;2023-02-22T00:13:06;31.50;;;13.13;;
73452;SDS011;61687;56.232;43.854;2023-02-22T00:15:34;36.58;;;14.10;;
73452;SDS011;61687;56.232;43.854;2023-02-22T00:18:01;33.15;;;13.25;;
73452;SDS011;61687;56.232;43.854;2023-02-22T00:20:28;33.58;;;12.85;;
73452;SDS011;61687;56.232;43.854;2023-02-22T00:22:55;31.03;;;12.70;;
73452;SDS011;61687;56.232;43.854;2023-02-22T00:25:22;37.25;;;13.90;;
73452;SDS011;61687;56.232;43.854;2023-02-22T00:27:49;37.30;;;13.15;;
73452;SDS011;61687;56.232;43.854;2023-02-22T00:30:18;33.45;;;13.63;;
73452;SDS011;61687;56.232;43.854;2023-02-22T00:32:47;35.43;;;14.03;;
73452;SDS011;61687;56.232;43.854;2023-02-22T00:35:15;40.05;;;14.88;;
73452;SDS011;61687;56.232;43.854;2023-02-22T00:37:42;25.80;;;12.75;;
73452;SDS011;61687;56.232;43.854;2023-02-22T00:40:13;32.60;;;12.10;;
73452;SDS011;61687;56.232;43.854;2023-02-22T00:42:41;40.17;;;13.70;;
73452;SDS011;61687;56.232;43.854;2023-02-22T00:45:07;37.50;;;14.00;;
73452;SDS011;61687;56.232;43.854;2023-02-22T00:47:34;34.90;;;13.50;;
73452;SDS011;61687;56.232;43.854;2023-02-22T00:50:00;30.67;;;13.10;;
73452;SDS011;61687;56.232;43.854;2023-02-22T00:52:28;35.15;;;14.68;;
73452;SDS011;61687;56.232;43.854;2023-02-22T00:54:54;29.73;;;11.82;;
73452;SDS011;61687;56.232;43.854;2023-02-22T00:57:22;27.33;;;10.93;;
73452;SDS011;61687;56.232;43.854;2023-02-22T00:59:49;37.80;;;13.23;;
73452;SDS011;61687;56.232;43.854;2023-02-22T01:02:16;38.95;;;13.77;;
73452;SDS011;61687;56.232;43.854;2023-02-22T01:04:42;36.30;;;14.20;;
73452;SDS011;61687;56.232;43.854;2023-02-22T01:07:10;41.10;;;15.05;;
73452;SDS011;61687;56.232;43.854;2023-02-22T01:09:36;39.60;;;15.57;;
73452;SDS011;61687;56.232;43.854;2023-02-22T01:12:03;35.50;;;13.68;;
73452;SDS011;61687;56.232;43.854;2023-02-22T01:14:30;45.80;;;14.82;;
73452;SDS011;61687;56.232;43.854;2023-02-22T01:16:56;36.30;;;14.43;;
73452;SDS011;61687;56.232;43.854;2023-02-22T01:19:22;37.03;;;14.10;;
73452;SDS011;61687;56.232;43.854;2023-02-22T01:21:48;39.38;;;14.63;;
73452;SDS011;61687;56.232;43.854;2023-02-22T01:24:15;38.95;;;14.82;;
73452;SDS011;61687;56.232;43.854;2023-02-22T01:26:42;35.15;;;13.38;;
73452;SDS011;61687;56.232;43.854;2023-02-22T01:29:13;32.45;;;14.15;;
73452;SDS011;61687;56.232;43.854;2023-02-22T01:31:40;36.30;;;13.57;;
73452;SDS011;61687;56.232;43.854;2023-02-22T01:34:10;37.17;;;14.68;;
73452;SDS011;61687;56.232;43.854;2023-02-22T01:36:37;32.85;;;13.05;;
73452;SDS011;61687;56.232;43.854;2023-02-22T01:39:07;34.83;;;13.00;;
73452;SDS011;61687;56.232;43.854;2023-02-22T01:41:35;37.30;;;15.02;;
73452;SDS011;61687;56.232;43.854;2023-02-22T01:44:23;41.07;;;14.30;;
73452;SDS011;61687;56.232;43.854;2023-02-22T01:46:53;19.02;;;10.48;;
73452;SDS011;61687;56.232;43.854;2023-02-22T01:49:23;36.53;;;14.40;;
73452;SDS011;61687;56.232;43.854;2023-02-22T01:51:52;40.33;;;13.98;;
73452;SDS011;61687;56.232;43.854;2023-02-22T01:57:23;40.97;;;13.80;;
73452;SDS011;61687;56.232;43.854;2023-02-22T01:59:52;41.65;;;14.20;;
73452;SDS011;61687;56.232;43.854;2023-02-22T02:02:23;34.80;;;14.07;;
73452;SDS011;61687;56.232;43.854;2023-02-22T02:04:53;34.63;;;13.30;;
73452;SDS011;61687;56.232;43.854;2023-02-22T02:07:21;52.15;;;14.65;;
73452;SDS011;61687;56.232;43.854;2023-02-22T02:12:26;32.72;;;12.40;;
73452;SDS011;61687;56.232;43.854;2023-02-22T02:17:52;36.72;;;14.40;;
73452;SDS011;61687;56.232;43.854;2023-02-22T02:20:41;25.52;;;10.90;;
73452;SDS011;61687;56.232;43.854;2023-02-22T02:31:56;40.95;;;14.88;;
73452;SDS011;61687;56.232;43.854;2023-02-22T02:45:58;34.03;;;12.30;;
73452;SDS011;61687;56.232;43.854;2023-02-22T02:48:31;32.70;;;13.70;;
73452;SDS011;61687;56.232;43.854;2023-02-22T02:51:02;35.17;;;13.83;;
73452;SDS011;61687;56.232;43.854;2023-02-22T02:53:36;33.28;;;13.63;;
73452;SDS011;61687;56.232;43.854;2023-02-22T02:56:05;40.90;;;15.10;;
73452;SDS011;61687;56.232;43.854;2023-02-22T02:58:32;39.35;;;14.65;;
73452;SDS011;61687;56.232;43.854;2023-02-22T03:00:59;39.42;;;13.95;;
73452;SDS011;61687;56.232;43.854;2023-02-22T03:06:12;41.58;;;14.77;;
73452;SDS011;61687;56.232;43.854;2023-02-22T03:11:45;30.30;;;12.23;;
73452;SDS011;61687;56.232;43.854;2023-02-22T03:20:11;38.28;;;14.52;;
73452;SDS011;61687;56.232;43.854;2023-02-22T03:23:13;40.28;;;14.75;;
73452;SDS011;61687;56.232;43.854;2023-02-22T03:25:57;32.88;;;12.27;;
73452;SDS011;61687;56.232;43.854;2023-02-22T03:28:29;42.75;;;13.82;;
73452;SDS011;61687;56.232;43.854;2023-02-22T03:30:59;29.83;;;13.73;;
73452;SDS011;61687;56.232;43.854;2023-02-22T03:33:49;34.70;;;13.90;;
73452;SDS011;61687;56.232;43.854;2023-02-22T03:36:29;42.08;;;15.90;;
73452;SDS011;61687;56.232;43.854;2023-02-22T03:39:03;28.52;;;12.48;;
73452;SDS011;61687;56.232;43.854;2023-02-22T03:41:34;22.17;;;8.65;;
73452;SDS011;61687;56.232;43.854;2023-02-22T03:44:05;39.63;;;13.80;;
73452;SDS011;61687;56.232;43.854;2023-02-22T03:46:35;37.33;;;14.32;;
73452;SDS011;61687;56.232;43.854;2023-02-22T03:49:13;45.03;;;16.00;;
73452;SDS011;61687;56.232;43.854;2023-02-22T03:51:48;36.33;;;14.27;;
73452;SDS011;61687;56.232;43.854;2023-02-22T03:54:15;25.20;;;11.43;;
73452;SDS011;61687;56.232;43.854;2023-02-22T03:56:44;45.37;;;14.03;;
73452;SDS011;61687;56.232;43.854;2023-02-22T03:59:20;31.10;;;12.65;;
73452;SDS011;61687;56.232;43.854;2023-02-22T04:01:55;32.45;;;14.65;;
73452;SDS011;61687;56.232;43.854;2023-02-22T04:04:23;40.38;;;14.80;;
73452;SDS011;61687;56.232;43.854;2023-02-22T04:06:50;17.58;;;9.23;;
73452;SDS011;61687;56.232;43.854;2023-02-22T04:09:17;25.93;;;10.50;;
73452;SDS011;61687;56.232;43.854;2023-02-22T04:11:44;39.00;;;15.05;;
73452;SDS011;61687;56.232;43.854;2023-02-22T04:14:11;28.60;;;11.32;;
73452;SDS011;61687;56.232;43.854;2023-02-22T04:16:37;39.95;;;15.40;;
73452;SDS011;61687;56.232;43.854;2023-02-22T04:19:07;35.30;;;14.27;;
73452;SDS011;61687;56.232;43.854;2023-02-22T04:21:34;34.20;;;13.77;;
73452;SDS011;61687;56.232;43.854;2023-02-22T04:24:01;43.28;;;14.98;;
73452;SDS011;61687;56.232;43.854;2023-02-22T04:26:27;32.92;;;11.98;;
73452;SDS011;61687;56.232;43.854;2023-02-22T04:28:56;39.50;;;15.10;;
73452;SDS011;61687;56.232;43.854;2023-02-22T04:31:23;37.13;;;14.18;;
73452;SDS011;61687;56.232;43.854;2023-02-22T04:33:52;34.60;;;14.87;;
73452;SDS011;61687;56.232;43.854;2023-02-22T04:36:23;33.80;;;14.30;;
73452;SDS011;61687;56.232;43.854;2023-02-22T04:38:52;44.00;;;16.02;;
73452;SDS011;61687;56.232;43.854;2023-02-22T04:41:19;37.10;;;13.50;;
73452;SDS011;61687;56.232;43.854;2023-02-22T04:43:45;38.63;;;13.43;;
73452;SDS011;61687;56.232;43.854;2023-02-22T04:46:17;25.97;;;10.67;;
73452;SDS011;61687;56.232;43.854;2023-02-22T04:48:43;43.40;;;14.38;;
73452;SDS011;61687;56.232;43.854;2023-02-22T04:51:09;41.63;;;14.73;;
73452;SDS011;61687;56.232;43.854;2023-02-22T04:53:37;35.08;;;12.65;;
73452;SDS011;61687;56.232;43.854;2023-02-22T04:56:03;28.85;;;12.38;;
73452;SDS011;61687;56.232;43.854;2023-02-22T04:58:30;33.15;;;13.88;;
73452;SDS011;61687;56.232;43.854;2023-02-22T05:00:56;33.20;;;13.70;;
73452;SDS011;61687;56.232;43.854;2023-02-22T05:03:22;43.13;;;14.85;;
73452;SDS011;61687;56.232;43.854;2023-02-22T05:05:48;39.03;;;14.37;;
73452;SDS011;61687;56.232;43.854;2023-02-22T05:08:15;39.08;;;14.88;;
73452;SDS011;61687;56.232;43.854;2023-02-22T05:10:41;33.80;;;12.70;;
73452;SDS011;61687;56.232;43.854;2023-02-22T05:13:07;32.67;;;11.10;;
73452;SDS011;61687;56.232;43.854;2023-02-22T05:15:33;30.35;;;12.52;;
73452;SDS011;61687;56.232;43.854;2023-02-22T05:17:59;28.50;;;12.73;;
73452;SDS011;61687;56.232;43.854;2023-02-22T05:20:26;31.67;;;12.98;;
73452;SDS011;61687;56.232;43.854;2023-02-22T05:22:57;36.27;;;12.03;;
73452;SDS011;61687;56.232;43.854;2023-02-22T05:25:25;25.10;;;9.98;;
73452;SDS011;61687;56.232;43.854;2023-02-22T05:30:21;35.55;;;12.90;;
73452;SDS011;61687;56.232;43.854;2023-02-22T05:32:50;30.02;;;12.70;;
73452;SDS011;61687;56.232;43.854;2023-02-22T05:35:17;42.43;;;14.40;;
73452;SDS011;61687;56.232;43.854;2023-02-22T05:37:44;34.00;;;11.10;;
73452;SDS011;61687;56.232;43.854;2023-02-22T05:40:11;26.48;;;11.77;;
73452;SDS011;61687;56.232;43.854;2023-02-22T05:42:39;31.70;;;10.88;;
73452;SDS011;61687;56.232;43.854;2023-02-22T05:45:06;37.45;;;14.52;;
73452;SDS011;61687;56.232;43.854;2023-02-22T05:47:33;35.47;;;13.70;;
73452;SDS011;61687;56.232;43.854;2023-02-22T05:49:59;39.45;;;14.43;;
73452;SDS011;61687;56.232;43.854;2023-02-22T05:52:26;28.55;;;10.70;;
73452;SDS011;61687;56.232;43.854;2023-02-22T05:54:52;30.80;;;12.98;;
73452;SDS011;61687;56.232;43.854;2023-02-22T05:57:17;40.03;;;13.03;;
73452;SDS011;61687;56.232;43.854;2023-02-22T05:59:43;27.23;;;11.57;;
73452;SDS011;61687;56.232;43.854;2023-02-22T06:02:09;35.77;;;13.70;;
73452;SDS011;61687;56.232;43.854;2023-02-22T06:04:35;33.45;;;13.13;;
73452;SDS011;61687;56.232;43.854;2023-02-22T06:07:01;31.83;;;12.75;;
73452;SDS011;61687;56.232;43.854;2023-02-22T06:09:27;28.25;;;13.43;;
73452;SDS011;61687;56.232;43.854;2023-02-22T06:11:53;34.03;;;13.00;;
73452;SDS011;61687;56.232;43.854;2023-02-22T06:14:19;37.20;;;15.93;;
73452;SDS011;61687;56.232;43.854;2023-02-22T06:16:50;30.10;;;13.30;;
73452;SDS011;61687;56.232;43.854;2023-02-22T06:19:17;36.70;;;13.43;;
73452;SDS011;61687;56.232;43.854;2023-02-22T06:21:50;31.98;;;13.45;;
73452;SDS011;61687;56.232;43.854;2023-02-22T06:24:17;32.78;;;13.18;;
73452;SDS011;61687;56.232;43.854;2023-02-22T06:26:43;26.50;;;11.90;;
73452;SDS011;61687;56.232;43.854;2023-02-22T06:29:09;28.95;;;12.20;;
73452;SDS011;61687;56.232;43.854;2023-02-22T06:31:35;28.85;;;12.93;;
73452;SDS011;61687;56.232;43.854;2023-02-22T06:34:01;26.90;;;10.35;;
73452;SDS011;61687;56.232;43.854;2023-02-22T06:36:27;22.67;;;11.00;;
73452;SDS011;61687;56.232;43.854;2023-02-22T06:38:56;24.77;;;10.73;;
73452;SDS011;61687;56.232;43.854;2023-02-22T06:41:22;28.48;;;12.48;;
73452;SDS011;61687;56.232;43.854;2023-02-22T06:43:48;32.90;;;11.95;;
73452;SDS011;61687;56.232;43.854;2023-02-22T06:46:14;35.87;;;12.50;;
73452;SDS011;61687;56.232;43.854;2023-02-22T06:48:40;24.58;;;10.52;;
73452;SDS011;61687;56.232;43.854;2023-02-22T06:51:07;24.48;;;10.55;;
73452;SDS011;61687;56.232;43.854;2023-02-22T06:53:34;22.83;;;10.85;;
73452;SDS011;61687;56.232;43.854;2023-02-22T06:56:00;24.30;;;11.43;;
73452;SDS011;61687;56.232;43.854;2023-02-22T06:58:27;26.08;;;11.52;;
73452;SDS011;61687;56.232;43.854;2023-02-22T07:00:53;28.38;;;10.95;;
73452;SDS011;61687;56.232;43.854;2023-02-22T07:03:19;25.65;;;11.55;;
73452;SDS011;61687;56.232;43.854;2023-02-22T07:05:45;28.20;;;11.20;;
73452;SDS011;61687;56.232;43.854;2023-02-22T07:08:11;34.83;;;13.02;;
73452;SDS011;61687;56.232;43.854;2023-02-22T07:10:38;31.65;;;13.15;;
73452;SDS011;61687;56.232;43.854;2023-02-22T07:13:05;30.75;;;11.65;;
73452;SDS011;61687;56.232;43.854;2023-02-22T07:15:32;25.30;;;11.10;;
73452;SDS011;61687;56.232;43.854;2023-02-22T07:17:59;31.60;;;12.48;;
73452;SDS011;61687;56.232;43.854;2023-02-22T07:20:27;22.63;;;10.57;;
73452;SDS011;61687;56.232;43.854;2023-02-22T07:22:55;19.75;;;9.63;;
73452;SDS011;61687;56.232;43.854;2023-02-22T07:25:22;28.80;;;11.70;;
73452;SDS011;61687;56.232;43.854;2023-02-22T07:27:48;25.88;;;12.10;;
73452;SDS011;61687;56.232;43.854;2023-02-22T07:30:24;26.00;;;11.82;;
73452;SDS011;61687;56.232;43.854;2023-02-22T07:32:59;31.13;;;11.90;;
73452;SDS011;61687;56.232;43.854;2023-02-22T07:35:31;24.10;;;10.63;;
73452;SDS011;61687;56.232;43.854;2023-02-22T07:38:01;20.33;;;8.93;;
73452;SDS011;61687;56.232;43.854;2023-02-22T07:40:28;29.77;;;11.13;;
73452;SDS011;61687;56.232;43.854;2023-02-22T07:42:58;24.42;;;11.02;;
73452;SDS011;61687;56.232;43.854;2023-02-22T07:45:31;32.58;;;13.32;;
73452;SDS011;61687;56.232;43.854;2023-02-22T07:47:59;24.77;;;10.70;;
73452;SDS011;61687;56.232;43.854;2023-02-22T07:50:27;26.00;;;12.37;;
73452;SDS011;61687;56.232;43.854;2023-02-22T07:52:58;25.50;;;10.98;;
73452;SDS011;61687;56.232;43.854;2023-02-22T07:55:27;33.88;;;12.15;;
73452;SDS011;61687;56.232;43.854;2023-02-22T07:57:55;25.08;;;10.20;;
73452;SDS011;61687;56.232;43.854;2023-02-22T08:00:24;22.00;;;10.88;;
73452;SDS011;61687;56.232;43.854;2023-02-22T08:02:55;22.97;;;11.47;;
73452;SDS011;61687;56.232;43.854;2023-02-22T08:05:22;20.58;;;11.05;;
73452;SDS011;61687;56.232;43.854;2023-02-22T08:07:51;24.42;;;11.00;;
73452;SDS011;61687;56.232;43.854;2023-02-22T08:10:18;30.85;;;11.57;;
73452;SDS011;61687;56.232;43.854;2023-02-22T08:12:46;27.52;;;10.45;;
73452;SDS011;61687;56.232;43.854;2023-02-22T08:15:15;25.70;;;9.93;;
73452;SDS011;61687;56.232;43.854;2023-02-22T08:17:43;23.02;;;9.50;;
73452;SDS011;61687;56.232;43.854;2023-02-22T08:20:09;26.50;;;12.15;;
73452;SDS011;61687;56.232;43.854;2023-02-22T08:22:35;24.23;;;11.57;;
73452;SDS011;61687;56.232;43.854;2023-02-22T08:25:01;19.30;;;9.67;;
73452;SDS011;61687;56.232;43.854;2023-02-22T08:27:29;24.13;;;10.40;;
73452;SDS011;61687;56.232;43.854;2023-02-22T08:29:55;25.88;;;11.45;;
73452;SDS011;61687;56.232;43.854;2023-02-22T08:32:22;23.48;;;10.10;;
73452;SDS011;61687;56.232;43.854;2023-02-22T08:34:48;20.42;;;8.98;;
73452;SDS011;61687;56.232;43.854;2023-02-22T08:37:15;22.63;;;10.20;;
73452;SDS011;61687;56.232;43.854;2023-02-22T08:39:41;24.58;;;10.32;;
73452;SDS011;61687;56.232;43.854;2023-02-22T08:42:07;27.98;;;11.52;;
73452;SDS011;61687;56.232;43.854;2023-02-22T08:44:34;24.17;;;10.43;;
73452;SDS011;61687;56.232;43.854;2023-02-22T08:47:00;20.48;;;9.85;;
73452;SDS011;61687;56.232;43.854;2023-02-22T08:49:26;25.73;;;11.10;;
73452;SDS011;61687;56.232;43.854;2023-02-22T08:51:52;29.85;;;11.43;;
73452;SDS011;61687;56.232;43.854;2023-02-22T08:54:18;29.60;;;12.00;;
73452;SDS011;61687;56.232;43.854;2023-02-22T08:56:44;30.70;;;13.23;;
73452;SDS011;61687;56.232;43.854;2023-02-22T08:59:09;29.58;;;10.60;;
73452;SDS011;61687;56.232;43.854;2023-02-22T09:01:35;31.17;;;11.45;;
73452;SDS011;61687;56.232;43.854;2023-02-22T09:04:01;23.23;;;9.88;;
73452;SDS011;61687;56.232;43.854;2023-02-22T09:06:28;28.52;;;12.02;;
73452;SDS011;61687;56.232;43.854;2023-02-22T09:08:54;31.87;;;12.00;;
73452;SDS011;61687;56.232;43.854;2023-02-22T09:11:20;25.10;;;11.48;;
73452;SDS011;61687;56.232;43.854;2023-02-22T09:13:46;27.45;;;11.00;;
73452;SDS011;61687;56.232;43.854;2023-02-22T09:16:12;31.20;;;11.93;;
73452;SDS011;61687;56.232;43.854;2023-02-22T09:18:38;27.43;;;11.43;;
73452;SDS011;61687;56.232;43.854;2023-02-22T09:21:04;27.38;;;12.50;;
73452;SDS011;61687;56.232;43.854;2023-02-22T09:23:30;33.22;;;10.95;;
73452;SDS011;61687;56.232;43.854;2023-02-22T09:25:56;27.98;;;11.85;;
73452;SDS011;61687;56.232;43.854;2023-02-22T09:28:25;25.53;;;11.13;;
73452;SDS011;61687;56.232;43.854;2023-02-22T09:30:51;25.63;;;11.30;;
73452;SDS011;61687;56.232;43.854;2023-02-22T09:33:18;30.50;;;11.15;;
73452;SDS011;61687;56.232;43.854;2023-02-22T09:35:46;21.85;;;9.27;;
73452;SDS011;61687;56.232;43.854;2023-02-22T09:38:15;33.25;;;13.35;;
73452;SDS011;61687;56.232;43.854;2023-02-22T09:40:51;30.03;;;12.70;;
73452;SDS011;61687;56.232;43.854;2023-02-22T09:46:11;27.13;;;11.82;;
73452;SDS011;61687;56.232;43.854;2023-02-22T09:51:18;28.83;;;12.30;;
73452;SDS011;61687;56.232;43.854;2023-02-22T09:53:45;27.83;;;10.60;;
73452;SDS011;61687;56.232;43.854;2023-02-22T09:56:16;30.42;;;11.73;;
73452;SDS011;61687;56.232;43.854;2023-02-22T10:04:10;25.03;;;10.40;;
73452;SDS011;61687;56.232;43.854;2023-02-22T10:07:05;30.02;;;11.88;;
73452;SDS011;61687;56.232;43.854;2023-02-22T10:09:50;27.90;;;12.57;;
73452;SDS011;61687;56.232;43.854;2023-02-22T10:12:32;33.20;;;11.43;;
73452;SDS011;61687;56.232;43.854;2023-02-22T10:21:17;24.63;;;11.15;;
73452;SDS011;61687;56.232;43.854;2023-02-22T10:24:04;24.88;;;10.57;;
73452;SDS011;61687;56.232;43.854;2023-02-22T10:26:35;24.50;;;11.45;;
73452;SDS011;61687;56.232;43.854;2023-02-22T10:29:19;21.80;;;11.05;;
73452;SDS011;61687;56.232;43.854;2023-02-22T10:31:51;28.07;;;11.37;;
73452;SDS011;61687;56.232;43.854;2023-02-22T10:34:26;24.58;;;10.40;;
73452;SDS011;61687;56.232;43.854;2023-02-22T10:39:38;22.92;;;10.05;;
73452;SDS011;61687;56.232;43.854;2023-02-22T10:42:06;24.42;;;12.23;;
73452;SDS011;61687;56.232;43.854;2023-02-22T10:44:34;25.40;;;10.83;;
73452;SDS011;61687;56.232;43.854;2023-02-22T10:47:02;21.52;;;10.55;;
73452;SDS011;61687;56.232;43.854;2023-02-22T10:49:35;25.17;;;10.55;;
73452;SDS011;61687;56.232;43.854;2023-02-22T10:52:13;26.25;;;11.23;;
73452;SDS011;61687;56.232;43.854;2023-02-22T10:54:45;24.80;;;10.15;;
73452;SDS011;61687;56.232;43.854;2023-02-22T10:57:13;21.03;;;9.40;;
73452;SDS011;61687;56.232;43.854;2023-02-22T10:59:43;27.88;;;11.52;;
73452;SDS011;61687;56.232;43.854;2023-02-22T11:04:59;25.60;;;11.38;;
73452;SDS011;61687;56.232;43.854;2023-02-22T11:07:30;26.40;;;11.97;;
73452;SDS011;61687;56.232;43.854;2023-02-22T11:09:58;23.25;;;10.95;;
73452;SDS011;61687;56.232;43.854;2023-02-22T11:15:40;22.30;;;10.25;;
73452;SDS011;61687;56.232;43.854;2023-02-22T11:17:48;17.55;;;8.80;;
73452;SDS011;61687;56.232;43.854;2023-02-22T11:20:19;23.07;;;10.47;;
73452;SDS011;61687;56.232;43.854;2023-02-22T11:22:56;29.60;;;11.10;;
73452;SDS011;61687;56.232;43.854;2023-02-22T11:25:26;31.83;;;12.75;;
73452;SDS011;61687;56.232;43.854;2023-02-22T11:27:55;25.10;;;10.80;;
73452;SDS011;61687;56.232;43.854;2023-02-22T11:30:33;18.33;;;8.60;;
73452;SDS011;61687;56.232;43.854;2023-02-22T11:35:39;23.38;;;10.38;;
73452;SDS011;61687;56.232;43.854;2023-02-22T11:38:35;25.95;;;11.13;;
73452;SDS011;61687;56.232;43.854;2023-02-22T11:43:39;20.38;;;10.00;;
73452;SDS011;61687;56.232;43.854;2023-02-22T11:46:13;19.43;;;10.43;;
73452;SDS011;61687;56.232;43.854;2023-02-22T11:54:50;19.85;;;10.52;;
73452;SDS011;61687;56.232;43.854;2023-02-22T11:57:35;19.33;;;9.82;;
73452;SDS011;61687;56.232;43.854;2023-02-22T12:00:14;16.67;;;9.07;;
73452;SDS011;61687;56.232;43.854;2023-02-22T12:05:30;25.55;;;10.18;;
73452;SDS011;61687;56.232;43.854;2023-02-22T12:08:18;16.67;;;9.00;;
73452;SDS011;61687;56.232;43.854;2023-02-22T12:11:02;19.55;;;9.25;;
73452;SDS011;61687;56.232;43.854;2023-02-22T12:21:43;20.45;;;10.13;;
73452;SDS011;61687;56.232;43.854;2023-02-22T12:24:20;22.08;;;10.05;;
73452;SDS011;61687;56.232;43.854;2023-02-22T12:26:50;21.77;;;10.20;;
73452;SDS011;61687;56.232;43.854;2023-02-22T12:32:04;20.50;;;10.18;;
73452;SDS011;61687;56.232;43.854;2023-02-22T12:34:50;19.90;;;9.73;;
73452;SDS011;61687;56.232;43.854;2023-02-22T12:37:25;17.33;;;8.65;;
73452;SDS011;61687;56.232;43.854;2023-02-22T12:39:56;25.63;;;9.60;;
73452;SDS011;61687;56.232;43.854;2023-02-22T12:42:44;20.70;;;10.32;;
73452;SDS011;61687;56.232;43.854;2023-02-22T12:45:25;20.50;;;9.20;;
73452;SDS011;61687;56.232;43.854;2023-02-22T12:47:55;21.02;;;10.32;;
73452;SDS011;61687;56.232;43.854;2023-02-22T12:50:26;16.63;;;8.38;;
73452;SDS011;61687;56.232;43.854;2023-02-22T12:55:40;20.23;;;9.82;;
73452;SDS011;61687;56.232;43.854;2023-02-22T13:00:43;21.70;;;9.23;;
73452;SDS011;61687;56.232;43.854;2023-02-22T13:03:23;22.85;;;9.85;;
73452;SDS011;61687;56.232;43.854;2023-02-22T13:06:08;20.90;;;9.37;;
73452;SDS011;61687;56.232;43.854;2023-02-22T13:09:59;16.38;;;9.48;;
73452;SDS011;61687;56.232;43.854;2023-02-22T13:12:00;23.92;;;10.65;;
73452;SDS011;61687;56.232;43.854;2023-02-22T13:19:44;21.07;;;9.27;;
73452;SDS011;61687;56.232;43.854;2023-02-22T13:22:34;19.60;;;9.82;;
73452;SDS011;61687;56.232;43.854;2023-02-22T13:25:31;26.30;;;11.07;;
73452;SDS011;61687;56.232;43.854;2023-02-22T13:30:44;21.52;;;9.80;;
73452;SDS011;61687;56.232;43.854;2023-02-22T13:48:23;17.97;;;8.90;;
73452;SDS011;61687;56.232;43.854;2023-02-22T13:56:51;25.02;;;10.55;;
73452;SDS011;61687;56.232;43.854;2023-02-22T13:59:22;17.77;;;7.85;;
73452;SDS011;61687;56.232;43.854;2023-02-22T14:01:50;23.30;;;9.20;;
73452;SDS011;61687;56.232;43.854;2023-02-22T14:06:53;20.85;;;9.20;;
73452;SDS011;61687;56.232;43.854;2023-02-22T14:12:46;23.63;;;10.13;;
73452;SDS011;61687;56.232;43.854;2023-02-22T14:15:12;22.60;;;9.30;;
73452;SDS011;61687;56.232;43.854;2023-02-22T14:20:34;25.45;;;10.18;;
73452;SDS011;61687;56.232;43.854;2023-02-22T14:26:10;21.17;;;9.13;;
73452;SDS011;61687;56.232;43.854;2023-02-22T14:31:11;22.67;;;10.32;;
73452;SDS011;61687;56.232;43.854;2023-02-22T14:41:56;24.17;;;10.20;;
73452;SDS011;61687;56.232;43.854;2023-02-22T14:44:29;19.48;;;9.10;;
73452;SDS011;61687;56.232;43.854;2023-02-22T14:47:02;22.45;;;9.07;;
73452;SDS011;61687;56.232;43.854;2023-02-22T14:49:31;23.65;;;10.13;;
73452;SDS011;61687;56.232;43.854;2023-02-22T14:52:12;18.75;;;9.13;;
73452;SDS011;61687;56.232;43.854;2023-02-22T14:54:54;18.30;;;8.53;;
73452;SDS011;61687;56.232;43.854;2023-02-22T15:02:56;26.55;;;10.95;;
73452;SDS011;61687;56.232;43.854;2023-02-22T15:05:25;28.23;;;10.73;;
73452;SDS011;61687;56.232;43.854;2023-02-22T15:08:00;25.80;;;10.80;;
73452;SDS011;61687;56.232;43.854;2023-02-22T15:10:29;20.73;;;9.95;;
73452;SDS011;61687;56.232;43.854;2023-02-22T15:15:52;21.45;;;9.88;;
73452;SDS011;61687;56.232;43.854;2023-02-22T15:18:27;20.27;;;10.23;;
73452;SDS011;61687;56.232;43.854;2023-02-22T15:21:03;37.43;;;14.57;;
73452;SDS011;61687;56.232;43.854;2023-02-22T15:23:41;28.83;;;12.27;;
73452;SDS011;61687;56.232;43.854;2023-02-22T15:26:31;28.65;;;11.35;;
73452;SDS011;61687;56.232;43.854;2023-02-22T15:29:06;26.17;;;10.90;;
73452;SDS011;61687;56.232;43.854;2023-02-22T15:31:36;22.27;;;10.90;;
73452;SDS011;61687;56.232;43.854;2023-02-22T15:36:46;21.45;;;10.18;;
73452;SDS011;61687;56.232;43.854;2023-02-22T15:39:29;33.08;;;11.38;;
73452;SDS011;61687;56.232;43.854;2023-02-22T15:42:06;24.73;;;10.77;;
73452;SDS011;61687;56.232;43.854;2023-02-22T15:44:34;21.10;;;10.32;;
73452;SDS011;61687;56.232;43.854;2023-02-22T15:47:02;23.03;;;9.17;;
73452;SDS011;61687;56.232;43.854;2023-02-22T15:49:29;28.67;;;11.15;;
73452;SDS011;61687;56.232;43.854;2023-02-22T15:52:03;26.15;;;10.80;;
73452;SDS011;61687;56.232;43.854;2023-02-22T15:54:50;21.40;;;10.20;;
73452;SDS011;61687;56.232;43.854;2023-02-22T15:57:20;26.58;;;11.68;;
73452;SDS011;61687;56.232;43.854;2023-02-22T15:59:51;23.90;;;10.20;;
73452;SDS011;61687;56.232;43.854;2023-02-22T16:02:31;27.25;;;11.23;;
73452;SDS011;61687;56.232;43.854;2023-02-22T16:05:06;28.35;;;11.23;;
73452;SDS011;61687;56.232;43.854;2023-02-22T16:07:37;32.33;;;10.30;;
73452;SDS011;61687;56.232;43.854;2023-02-22T16:10:28;21.88;;;10.32;;
73452;SDS011;61687;56.232;43.854;2023-02-22T16:13:04;16.37;;;8.37;;
73452;SDS011;61687;56.232;43.854;2023-02-22T16:15:33;30.27;;;11.65;;
73452;SDS011;61687;56.232;43.854;2023-02-22T16:21:10;22.17;;;9.93;;
73452;SDS011;61687;56.232;43.854;2023-02-22T16:23:46;23.05;;;10.07;;
73452;SDS011;61687;56.232;43.854;2023-02-22T16:26:18;25.87;;;10.00;;
73452;SDS011;61687;56.232;43.854;2023-02-22T16:28:52;17.42;;;8.40;;
73452;SDS011;61687;56.232;43.854;2023-02-22T16:31:40;25.17;;;9.00;;
73452;SDS011;61687;56.232;43.854;2023-02-22T16:34:06;19.65;;;8.27;;
73452;SDS011;61687;56.232;43.854;2023-02-22T16:36:42;19.23;;;8.60;;
73452;SDS011;61687;56.232;43.854;2023-02-22T16:39:19;24.83;;;9.75;;
73452;SDS011;61687;56.232;43.854;2023-02-22T16:41:49;16.30;;;8.73;;
73452;SDS011;61687;56.232;43.854;2023-02-22T16:44:16;30.00;;;10.55;;
73452;SDS011;61687;56.232;43.854;2023-02-22T16:46:43;23.15;;;9.65;;
73452;SDS011;61687;56.232;43.854;2023-02-22T16:49:10;22.63;;;10.37;;
73452;SDS011;61687;56.232;43.854;2023-02-22T16:51:43;20.92;;;9.45;;
73452;SDS011;61687;56.232;43.854;2023-02-22T16:54:24;20.60;;;9.48;;
73452;SDS011;61687;56.232;43.854;2023-02-22T16:56:53;20.80;;;9.20;;
73452;SDS011;61687;56.232;43.854;2023-02-22T16:59:21;22.60;;;8.98;;
73452;SDS011;61687;56.232;43.854;2023-02-22T17:01:47;27.27;;;11.03;;
73452;SDS011;61687;56.232;43.854;2023-02-22T17:04:18;20.15;;;9.23;;
73452;SDS011;61687;56.232;43.854;2023-02-22T17:06:51;24.40;;;10.98;;
73452;SDS011;61687;56.232;43.854;2023-02-22T17:09:18;26.00;;;10.23;;
73452;SDS011;61687;56.232;43.854;2023-02-22T17:11:47;22.27;;;10.25;;
73452;SDS011;61687;56.232;43.854;2023-02-22T17:14:16;27.73;;;11.43;;
73452;SDS011;61687;56.232;43.854;2023-02-22T17:16:48;24.48;;;9.27;;